Online since October of 2007


Bigbaywx more information Bigbaywx


mount mesnard more information Mount Mesnard


visit our other weather sites:

Template documentation
and downloads

And another site


CBI


there are no active watches, warnings or advisories

nearby metar reports

   
KSAW - Sawyer, Michigan
updated: May 27 2020 2:18 am
clear  
clear  
   wind: south 12.7 mph
wind: south 12.7 mph
temperature: 66.2°F
dew point: 60.8°F
humidity: 83%
barometer: 29.91 inHg
clouds: clear
visibility: 10 mi
cloud details: clear
KSAW 270618Z AUTO 18011KT 10SM CLR 19/16 A2991 RMK AO2 T01850158
KESC - Escanaba, Michigan
updated: May 27 2020 1:56 am
mist, clear  
mist, clear  
   wind: east 3.5 mph
wind: east 3.5 mph
temperature: 55.4°F
dew point: 55.4°F
humidity: 100%
barometer: 29.93 inHg
clouds: clear
visibility: 5 mi
cloud details: clear
KESC 270556Z AUTO 10003KT 5SM BR CLR 13/13 A2993 RMK AO2 SLP139 T01330128 10167 20133 57007
KIMT - Iron Mountain, MI
updated: May 27 2020 1:54 am
clear  
clear  
   wind: se 3.5 mph
wind: se 3.5 mph
temperature: 64.4°F
dew point: 62.6°F
humidity: 94%
barometer: 29.9 inHg
clouds: clear
visibility: 10 mi
cloud details: clear
KIMT 270554Z AUTO 13003KT 10SM CLR 18/17 A2990 RMK AO2 SLP118 60001 T01780167 10194 20178 403000161 56009
KGRB - Green Bay, WI
updated: May 27 2020 1:53 am
clear  
clear  
   wind: south 9.2 mph
wind: south 9.2 mph
temperature: 73.4°F
dew point: 62.6°F
humidity: 69%
barometer: 29.91 inHg
clouds: clear
visibility: 10 mi
cloud details: clear
KGRB 270553Z AUTO 17008KT 10SM CLR 23/17 A2991 RMK AO2 SLP125 T02280167 10278 20228 403060183 56004
KDET - Detroit, MI
updated: May 27 2020 1:53 am
clear  
clear  
   wind: ese 3.5 mph
wind: ese 3.5 mph
temperature: 71.6°F
dew point: 62.6°F
humidity: 73%
barometer: 30.03 inHg
clouds: clear
visibility: 10 mi
cloud details: clear
KDET 270553Z 11003KT 10SM CLR 22/17 A3003 RMK AO2 SLP164 T02170172 10289 20211 58004
 

script developed by  Saratoga-weather.org adapted for the template by  Weerstation Leuven

you find our weather info also at:

Weather Underground

midwestern weather network

WeatherlinkIP

Citizen Weather Observer Program (CWOP)

equipment we use:

weather-station
Davis VP2

weather-program
Davis Weatherlink.Com

Davis VP2

Davis Weatherlink.Com